Time;durP1;ratioP1;P1;durP2;ratioP2;P2;SDS_P1;SDS_P2;PMS_P1;PMS_P2;Temp;Humidity;BMP_temperature;BMP_pressure;BME280_temperature;BME280_humidity;BME280_pressure;Samples;Min_cycle;Max_cycle;Signal;HPM_P1;HPM_P2
2022/11/08 00:01:57;;;;;;;6.17;5.20;;;;;;;4.27;100.00;96513.88;5035668;28;101854;-64
2022/11/08 00:04:25;;;;;;;5.53;5.03;;;;;;;4.46;100.00;96514.81;5032631;27;102577;-64
2022/11/08 00:15:08;;;;;;;5.20;4.40;;;;;;;4.22;100.00;96502.34;5033311;27;101684;-64
2022/11/08 00:17:35;;;;;;;5.50;4.73;;;;;;;4.32;100.00;96497.47;5033067;28;102339;-64
2022/11/08 00:20:04;;;;;;;5.30;4.57;;;;;;;4.34;100.00;96498.06;5032230;27;102615;-64
2022/11/08 00:22:32;;;;;;;5.20;4.70;;;;;;;4.09;100.00;96503.19;5033083;27;101851;-64
2022/11/08 00:24:59;;;;;;;5.30;4.80;;;;;;;4.09;100.00;96502.41;5035984;27;102386;-64
2022/11/08 00:27:27;;;;;;;4.57;4.17;;;;;;;3.96;100.00;96499.81;5032939;27;101664;-64
2022/11/08 00:29:54;;;;;;;7.83;4.43;;;;;;;3.76;100.00;96497.22;5032526;27;102864;-64
2022/11/08 00:32:23;;;;;;;5.13;4.60;;;;;;;3.79;100.00;96498.63;5032277;27;102600;-64
2022/11/08 00:34:51;;;;;;;4.90;4.40;;;;;;;3.78;100.00;96494.38;5032976;27;101671;-64
2022/11/08 00:37:21;;;;;;;5.17;4.40;;;;;;;3.70;100.00;96492.78;5032617;27;102344;-64
2022/11/08 00:39:49;;;;;;;5.53;4.47;;;;;;;3.76;100.00;96493.78;5032179;27;102722;-64
2022/11/08 00:42:17;;;;;;;4.67;4.27;;;;;;;3.83;100.00;96494.59;5031422;27;101873;-64
2022/11/08 00:44:44;;;;;;;6.40;4.37;;;;;;;3.81;100.00;96486.06;5032830;27;102354;-64
2022/11/08 00:47:11;;;;;;;5.07;4.57;;;;;;;3.85;100.00;96476.75;5035589;27;102592;-64
2022/11/08 00:49:38;;;;;;;5.13;4.57;;;;;;;3.90;100.00;96474.31;5032484;27;102220;-64
2022/11/08 00:52:05;;;;;;;4.83;4.33;;;;;;;3.95;100.00;96475.34;5030586;28;104077;-64
2022/11/08 00:54:34;;;;;;;4.83;4.07;;;;;;;3.82;100.00;96467.47;5032673;27;101913;-64
2022/11/08 00:57:01;;;;;;;5.00;4.50;;;;;;;3.94;100.00;96470.28;5032480;27;101627;-64
2022/11/08 00:59:28;;;;;;;5.67;4.90;;;;;;;3.88;100.00;96466.63;5030394;28;103688;-64
2022/11/08 01:01:55;;;;;;;5.03;4.63;;;;;;;3.87;100.00;96465.03;5031069;28;101985;-65
2022/11/08 01:04:22;;;;;;;5.47;4.43;;;;;;;3.74;100.00;96461.63;5030905;28;102742;-64
2022/11/08 01:06:49;;;;;;;6.47;4.10;;;;;;;3.70;100.00;96458.59;5030379;28;104192;-64
2022/11/08 01:09:16;;;;;;;5.73;4.87;;;;;;;3.60;100.00;96457.41;5034443;28;101863;-64
2022/11/08 01:11:46;;;;;;;5.27;4.77;;;;;;;3.64;100.00;96451.53;5030286;28;105585;-65
2022/11/08 01:14:14;;;;;;;6.27;4.80;;;;;;;3.65;100.00;96452.34;5031071;28;101810;-65
2022/11/08 01:16:43;;;;;;;4.67;4.27;;;;;;;3.55;100.00;96451.97;5030616;28;105076;-65
2022/11/08 01:19:10;;;;;;;5.93;4.50;;;;;;;3.49;100.00;96434.38;5031555;28;102633;-65
2022/11/08 01:21:38;;;;;;;6.67;4.77;;;;;;;3.56;100.00;96443.06;5030922;28;101886;-65
2022/11/08 01:24:06;;;;;;;4.37;3.97;;;;;;;3.41;100.00;96435.41;5032359;28;102242;-65
2022/11/08 01:26:33;;;;;;;5.27;3.80;;;;;;;3.28;100.00;96442.50;5031261;27;102521;-65
2022/11/08 01:29:02;;;;;;;5.27;4.47;;;;;;;3.36;100.00;96439.66;5035611;27;101722;-65
2022/11/08 01:31:30;;;;;;;4.70;4.30;;;;;;;3.45;100.00;96436.59;5031033;27;103128;-65
2022/11/08 01:33:58;;;;;;;5.10;4.27;;;;;;;3.57;100.00;96442.84;5030446;28;101934;-65
2022/11/08 01:36:27;;;;;;;5.93;4.43;;;;;;;3.63;100.00;96435.94;5030478;28;103595;-65
2022/11/08 01:38:55;;;;;;;5.20;4.57;;;;;;;3.66;100.00;96431.09;5029996;28;106151;-65
2022/11/08 01:41:25;;;;;;;5.00;4.50;;;;;;;3.57;100.00;96423.63;5030104;28;101973;-65
2022/11/08 01:43:53;;;;;;;5.80;4.47;;;;;;;3.60;100.00;96423.25;5030601;28;104842;-65
2022/11/08 01:46:42;;;;;;;5.57;4.37;;;;;;;3.54;100.00;96418.78;5031093;27;104161;-65
2022/11/08 01:49:32;;;;;;;4.10;3.80;;;;;;;3.30;100.00;96419.44;5030189;28;101934;-65
2022/11/08 01:52:20;;;;;;;4.40;4.00;;;;;;;3.39;100.00;96420.84;5032893;28;104960;-65
2022/11/08 01:55:05;;;;;;;3.97;3.67;;;;;;;3.42;100.00;96418.63;5030069;28;101888;-65
2022/11/08 01:57:38;;;;;;;4.13;3.80;;;;;;;3.48;100.00;96414.34;5028417;28;101811;-65
2022/11/08 02:00:09;;;;;;;5.17;4.40;;;;;;;3.45;100.00;96409.50;5029511;28;104179;-65
2022/11/08 02:02:40;;;;;;;4.43;4.03;;;;;;;3.42;100.00;96409.91;5031611;27;101763;-65
2022/11/08 02:05:23;;;;;;;6.40;4.17;;;;;;;3.47;100.00;96399.59;5031520;27;102823;-65
2022/11/08 02:07:54;;;;;;;4.17;3.77;;;;;;;3.48;100.00;96393.31;5030907;27;102473;-63
2022/11/08 02:10:23;;;;;;;5.17;4.10;;;;;;;3.42;100.00;96391.50;5030022;28;101946;-63
2022/11/08 02:12:52;;;;;;;3.73;3.43;;;;;;;3.42;100.00;96388.88;5029866;28;105254;-64
2022/11/08 02:15:23;;;;;;;4.53;3.90;;;;;;;3.28;100.00;96387.31;5033013;28;105376;-64
2022/11/08 02:17:51;;;;;;;4.93;3.83;;;;;;;3.30;100.00;96393.16;5029884;28;105009;-64
2022/11/08 02:20:19;;;;;;;4.37;3.83;;;;;;;3.38;100.00;96388.50;5030697;28;102587;-64
2022/11/08 02:22:51;;;;;;;4.73;4.23;;;;;;;3.29;100.00;96376.56;5031211;27;102147;-64
2022/11/08 02:25:19;;;;;;;7.47;4.87;;;;;;;3.53;100.00;96373.28;5031288;27;101679;-64
2022/11/08 02:27:46;;;;;;;6.03;3.93;;;;;;;3.55;100.00;96363.38;5030628;27;102583;-64
2022/11/08 02:30:14;;;;;;;4.27;3.80;;;;;;;3.47;100.00;96365.41;5029664;28;102101;-64
2022/11/08 02:32:43;;;;;;;3.80;3.50;;;;;;;3.68;100.00;96367.78;5029496;28;103630;-64
2022/11/08 02:35:14;;;;;;;4.53;4.00;;;;;;;3.57;100.00;96363.97;5030539;27;103206;-64
2022/11/08 02:37:41;;;;;;;5.97;4.53;;;;;;;3.66;100.00;96354.03;5034472;27;101748;-64
2022/11/08 02:40:10;;;;;;;4.30;3.90;;;;;;;3.69;100.00;96356.25;5029891;28;102821;-64
2022/11/08 02:42:39;;;;;;;4.57;3.80;;;;;;;3.64;100.00;96361.31;5030815;27;101877;-64
2022/11/08 02:45:08;;;;;;;4.03;3.70;;;;;;;3.67;100.00;96358.28;5031102;27;102944;-64
2022/11/08 02:47:35;;;;;;;3.90;3.50;;;;;;;3.65;100.00;96355.06;5030248;27;101877;-64
2022/11/08 02:50:02;;;;;;;4.10;3.67;;;;;;;3.74;100.00;96357.25;5030132;27;101806;-64
2022/11/08 02:52:29;;;;;;;3.90;3.50;;;;;;;3.86;100.00;96355.56;5030738;27;102737;-64
2022/11/08 02:54:57;;;;;;;4.40;3.27;;;;;;;3.78;100.00;96353.16;5028372;28;105816;-64
2022/11/08 02:57:24;;;;;;;3.77;3.37;;;;;;;3.63;100.00;96351.81;5029418;28;102085;-64
2022/11/08 02:59:52;;;;;;;4.70;3.70;;;;;;;3.65;100.00;96349.81;5033444;28;102387;-64
2022/11/08 03:02:20;;;;;;;4.00;3.60;;;;;;;3.67;100.00;96345.94;5030430;27;101839;-64
2022/11/08 03:04:47;;;;;;;3.60;3.27;;;;;;;3.69;100.00;96343.09;5030476;27;101727;-64
2022/11/08 03:07:14;;;;;;;3.67;3.37;;;;;;;3.64;100.00;96345.53;5028213;28;103652;-64
2022/11/08 03:09:41;;;;;;;3.50;3.20;;;;;;;3.55;100.00;96344.97;5030478;27;101785;-64
2022/11/08 03:12:08;;;;;;;3.57;3.23;;;;;;;3.22;100.00;96344.25;5029177;28;103566;-64
2022/11/08 03:14:35;;;;;;;3.10;2.80;;;;;;;3.27;100.00;96338.41;5030152;27;101727;-64
2022/11/08 03:17:04;;;;;;;3.50;3.20;;;;;;;3.23;100.00;96335.34;5030413;27;101790;-65
2022/11/08 03:19:31;;;;;;;3.80;3.40;;;;;;;3.14;100.00;96328.72;5028784;28;105135;-65
2022/11/08 03:21:58;;;;;;;4.00;3.53;;;;;;;3.10;100.00;96339.81;5031697;28;105308;-65
2022/11/08 03:24:26;;;;;;;4.47;4.03;;;;;;;3.08;100.00;96339.22;5030365;27;102340;-65
2022/11/08 03:26:53;;;;;;;3.80;3.50;;;;;;;3.14;100.00;96338.41;5029539;28;102604;-65
2022/11/08 03:29:20;;;;;;;4.67;3.77;;;;;;;3.20;100.00;96335.78;5028901;28;101991;-65
2022/11/08 03:31:47;;;;;;;4.40;3.73;;;;;;;3.25;100.00;96337.78;5030278;27;102471;-65
2022/11/08 03:34:16;;;;;;;4.80;3.70;;;;;;;3.11;100.00;96333.59;5028256;28;103791;-65
2022/11/08 03:36:43;;;;;;;3.77;3.43;;;;;;;3.13;100.00;96335.00;5029812;27;101857;-65
2022/11/08 03:39:11;;;;;;;3.30;3.00;;;;;;;3.14;100.00;96339.22;5028677;28;103480;-65
2022/11/08 03:41:38;;;;;;;3.83;3.50;;;;;;;3.09;100.00;96338.22;5031605;28;105061;-65
2022/11/08 03:44:06;;;;;;;3.73;3.40;;;;;;;2.86;100.00;96332.59;5028738;28;103578;-64
2022/11/08 03:46:32;;;;;;;4.13;3.77;;;;;;;2.78;100.00;96338.06;5028111;28;104990;-64
2022/11/08 03:48:59;;;;;;;4.20;3.13;;;;;;;2.89;100.00;96334.84;5028451;28;101833;-64
2022/11/08 03:51:28;;;;;;;4.00;3.60;;;;;;;2.98;100.00;96334.41;5028363;28;105656;-64
2022/11/08 03:53:56;;;;;;;4.20;3.70;;;;;;;2.86;100.00;96335.22;5028108;28;104031;-64
2022/11/08 03:56:23;;;;;;;3.80;3.50;;;;;;;2.76;100.00;96330.41;5029966;27;101863;-63
2022/11/08 03:58:50;;;;;;;3.60;3.30;;;;;;;2.71;100.00;96332.00;5028064;28;103977;-64
2022/11/08 04:01:17;;;;;;;4.10;3.17;;;;;;;2.42;100.00;96325.38;5028014;28;104174;-64
2022/11/08 04:03:44;;;;;;;3.77;3.40;;;;;;;2.34;100.00;96330.78;5031862;28;101793;-64
2022/11/08 04:06:11;;;;;;;3.53;3.10;;;;;;;2.39;100.00;96332.81;5027895;28;103639;-64
2022/11/08 04:08:40;;;;;;;5.23;3.67;;;;;;;2.28;100.00;96333.41;5028203;28;101942;-64
2022/11/08 04:16:35;;;;;;;4.57;4.00;;;;;;;2.35;100.00;96335.03;5029240;27;101873;-64
2022/11/08 04:21:48;;;;;;;4.40;3.70;;;;;;;2.18;100.00;96319.88;5031087;28;105694;-64
2022/11/08 04:24:17;;;;;;;4.60;4.07;;;;;;;2.25;100.00;96315.44;5031591;28;101908;-64
2022/11/08 04:26:45;;;;;;;4.40;4.00;;;;;;;2.21;100.00;96319.47;5034836;28;103758;-64
2022/11/08 04:29:12;;;;;;;4.83;3.90;;;;;;;2.19;100.00;96316.25;5031448;28;101901;-64
2022/11/08 04:31:40;;;;;;;4.40;4.00;;;;;;;2.25;100.00;96316.25;5031356;28;103962;-64
2022/11/08 04:34:07;;;;;;;8.40;3.83;;;;;;;2.20;100.00;96318.66;5030871;28;103983;-64
2022/11/08 04:36:34;;;;;;;5.33;4.40;;;;;;;2.26;100.00;96317.06;5032396;27;101807;-64
2022/11/08 04:39:01;;;;;;;4.03;3.63;;;;;;;2.25;100.00;96312.81;5032512;27;102570;-64
2022/11/08 04:41:29;;;;;;;4.27;3.87;;;;;;;2.27;100.00;96308.19;5032225;27;102761;-64
2022/11/08 04:43:58;;;;;;;5.30;4.03;;;;;;;2.24;100.00;96308.59;5032966;27;101922;-64
2022/11/08 04:46:27;;;;;;;5.07;4.63;;;;;;;2.22;100.00;96302.72;5032749;27;102903;-64
2022/11/08 04:48:56;;;;;;;4.40;4.00;;;;;;;2.09;100.00;96303.50;5034157;28;103845;-64
2022/11/08 04:51:26;;;;;;;4.37;3.97;;;;;;;2.20;100.00;96302.91;5032104;27;102469;-64
2022/11/08 04:53:55;;;;;;;4.77;4.03;;;;;;;2.20;100.00;96299.50;5032055;27;102543;-64
2022/11/08 04:56:24;;;;;;;4.10;3.70;;;;;;;2.16;100.00;96308.78;5031062;28;101986;-64
2022/11/08 04:58:54;;;;;;;4.63;3.90;;;;;;;2.19;100.00;96308.38;5029350;28;102565;-64
2022/11/08 05:01:24;;;;;;;5.57;4.30;;;;;;;2.11;100.00;96311.19;5031873;27;101705;-64
2022/11/08 05:03:52;;;;;;;5.27;4.00;;;;;;;2.13;100.00;96309.19;5030912;28;101851;-64
2022/11/08 05:06:22;;;;;;;5.13;4.17;;;;;;;2.13;100.00;96311.81;5032389;28;102831;-64
2022/11/08 05:08:49;;;;;;;5.47;4.57;;;;;;;2.23;100.00;96302.53;5030405;28;106643;-64
2022/11/08 05:11:19;;;;;;;4.50;4.10;;;;;;;2.16;100.00;96303.53;5035516;27;101907;-64
2022/11/08 05:13:47;;;;;;;4.00;3.60;;;;;;;2.07;100.00;96296.88;5031585;27;102460;-64
2022/11/08 05:16:17;;;;;;;5.03;4.27;;;;;;;2.05;100.00;96293.63;5032177;27;101869;-64
2022/11/08 05:18:45;;;;;;;4.70;4.20;;;;;;;2.05;100.00;96288.38;5030907;28;104031;-64
2022/11/08 05:24:16;;;;;;;7.23;5.20;;;;;;;1.90;100.00;96285.13;4969920;28;102086;-64
2022/11/08 05:26:44;;;;;;;5.27;4.77;;;;;;;1.99;100.00;96281.31;4953407;28;105006;-64
2022/11/08 05:29:13;;;;;;;5.97;4.73;;;;;;;1.92;100.00;96283.13;4997434;27;102792;-64
2022/11/08 05:31:47;;;;;;;6.40;4.93;;;;;;;1.89;100.00;96284.34;5031861;28;102070;-64
2022/11/08 05:34:14;;;;;;;6.93;5.43;;;;;;;2.06;100.00;96280.31;5035015;27;102859;-64
2022/11/08 05:36:41;;;;;;;7.47;4.80;;;;;;;2.07;100.00;96286.38;5031924;27;101906;-64
2022/11/08 05:39:09;;;;;;;6.70;5.33;;;;;;;2.16;100.00;96295.66;5031846;27;102825;-64
2022/11/08 05:41:36;;;;;;;8.40;5.63;;;;;;;2.20;100.00;96292.44;5030962;28;103173;-64
2022/11/08 05:44:03;;;;;;;6.43;4.90;;;;;;;2.16;100.00;96286.00;5031572;27;101807;-64
2022/11/08 05:46:29;;;;;;;6.57;5.50;;;;;;;2.15;100.00;96288.81;5030759;28;104993;-64
2022/11/08 05:48:58;;;;;;;5.43;4.90;;;;;;;2.10;100.00;96283.34;5029992;28;105478;-64
2022/11/08 05:51:25;;;;;;;6.37;4.53;;;;;;;2.08;100.00;96280.91;5031711;27;101810;-64
2022/11/08 05:53:52;;;;;;;5.00;4.50;;;;;;;1.90;100.00;96278.09;5034943;27;102285;-66
2022/11/08 06:00:10;;;;;;;5.37;4.87;;;;;;;1.79;100.00;96277.84;5028685;28;101939;-64
2022/11/08 06:02:55;;;;;;;8.80;5.33;;;;;;;1.80;100.00;96280.28;5027729;28;102474;-63
2022/11/08 06:05:24;;;;;;;6.27;5.67;;;;;;;1.86;100.00;96283.94;5031714;27;101866;-63
2022/11/08 06:07:53;;;;;;;6.07;5.03;;;;;;;1.83;100.00;96286.94;5031668;27;103053;-64
2022/11/08 06:10:20;;;;;;;5.37;4.80;;;;;;;1.84;100.00;96280.69;5030785;27;103091;-65
2022/11/08 06:12:59;;;;;;;5.60;5.00;;;;;;;1.80;100.00;96280.28;5031631;27;101798;-64
2022/11/08 06:15:27;;;;;;;7.17;5.20;;;;;;;1.80;100.00;96285.53;5031607;27;102925;-64
2022/11/08 06:17:54;;;;;;;6.53;5.30;;;;;;;1.87;100.00;96286.31;5033957;28;102621;-65
2022/11/08 06:20:21;;;;;;;5.20;4.70;;;;;;;1.95;100.00;96293.22;5029914;28;105231;-65
2022/11/08 06:22:56;;;;;;;5.23;4.73;;;;;;;1.99;100.00;96295.25;5029501;28;104382;-64
2022/11/08 06:25:30;;;;;;;7.13;5.43;;;;;;;1.93;100.00;96290.81;5029966;28;101786;-64
2022/11/08 06:28:00;;;;;;;7.00;5.00;;;;;;;1.88;100.00;96295.84;5029908;28;104424;-65
2022/11/08 06:30:28;;;;;;;6.67;5.73;;;;;;;2.09;100.00;96290.41;5029809;27;102487;-65
2022/11/08 06:32:55;;;;;;;6.77;5.50;;;;;;;2.12;100.00;96294.44;5029137;28;101858;-65
2022/11/08 06:35:22;;;;;;;7.23;5.80;;;;;;;2.21;100.00;96296.69;5029549;28;104774;-65
2022/11/08 06:37:49;;;;;;;9.30;6.70;;;;;;;2.37;100.00;96298.09;5029207;28;105083;-65
2022/11/08 06:40:18;;;;;;;7.37;6.57;;;;;;;2.44;100.00;96299.72;5031554;27;101943;-65
2022/11/08 06:42:45;;;;;;;10.13;6.67;;;;;;;2.41;100.00;96304.56;5028668;28;105587;-65
2022/11/08 06:45:12;;;;;;;9.17;7.50;;;;;;;2.34;100.00;96308.97;5029117;28;101854;-65
2022/11/08 06:47:39;;;;;;;9.37;6.37;;;;;;;2.40;100.00;96309.00;5029312;28;103740;-65
2022/11/08 06:50:07;;;;;;;9.17;6.53;;;;;;;2.43;100.00;96308.59;5028536;28;104181;-65
2022/11/08 06:52:35;;;;;;;10.87;8.50;;;;;;;2.54;100.00;96320.31;5029528;28;101920;-65
2022/11/08 06:55:02;;;;;;;9.90;8.20;;;;;;;2.70;100.00;96320.72;5029434;28;103607;-65
2022/11/08 06:57:31;;;;;;;10.17;8.47;;;;;;;2.84;100.00;96317.03;5028367;28;106195;-65
2022/11/08 06:59:58;;;;;;;13.10;9.13;;;;;;;2.97;100.00;96314.41;5028900;28;102525;-65
2022/11/08 07:02:25;;;;;;;12.37;9.63;;;;;;;3.11;100.00;96315.19;5031687;28;104776;-63
2022/11/08 07:04:52;;;;;;;11.07;8.50;;;;;;;3.16;100.00;96310.13;5029116;28;101857;-63
2022/11/08 07:07:18;;;;;;;12.87;9.87;;;;;;;3.26;100.00;96310.50;5030583;27;102885;-64
2022/11/08 07:09:46;;;;;;;12.67;10.37;;;;;;;3.32;100.00;96310.47;5028392;28;103781;-64
2022/11/08 07:12:13;;;;;;;12.20;8.80;;;;;;;3.37;100.00;96309.84;5028070;28;102033;-64
2022/11/08 07:14:41;;;;;;;10.23;8.60;;;;;;;3.57;100.00;96305.34;5028997;28;105187;-64
2022/11/08 07:17:08;;;;;;;12.70;9.73;;;;;;;3.69;100.00;96295.75;5028036;28;105880;-64
2022/11/08 07:19:35;;;;;;;11.13;8.80;;;;;;;3.70;100.00;96303.44;5028900;28;102076;-64
2022/11/08 07:22:02;;;;;;;9.73;8.67;;;;;;;3.93;100.00;96303.72;5028614;28;104774;-64
2022/11/08 07:24:29;;;;;;;14.90;8.53;;;;;;;4.00;100.00;96306.31;5031688;28;105024;-64
2022/11/08 07:26:56;;;;;;;9.10;8.17;;;;;;;4.20;100.00;96304.38;5028698;28;104265;-64
2022/11/08 07:29:23;;;;;;;10.67;8.23;;;;;;;4.19;100.00;96308.84;5027927;28;105829;-64
2022/11/08 07:31:57;;;;;;;15.87;8.40;;;;;;;4.35;100.00;96307.50;5028901;28;101982;-64
2022/11/08 07:34:24;;;;;;;9.93;8.93;;;;;;;4.59;100.00;96309.34;5028808;28;104808;-64
2022/11/08 07:36:51;;;;;;;12.13;9.23;;;;;;;4.67;100.00;96316.97;5028223;28;105143;-64
2022/11/08 07:39:18;;;;;;;9.50;8.60;;;;;;;4.93;100.00;96322.03;5028573;28;101868;-64
2022/11/08 07:41:45;;;;;;;10.80;9.70;;;;;;;5.14;100.00;96324.25;5028674;28;105174;-64
2022/11/08 07:44:12;;;;;;;11.30;10.10;;;;;;;5.41;100.00;96325.59;5027621;28;105038;-64
2022/11/08 07:46:39;;;;;;;15.60;9.87;;;;;;;5.63;100.00;96313.56;5032450;27;101709;-64
2022/11/08 07:49:08;;;;;;;10.57;9.00;;;;;;;5.82;100.00;96312.53;5020924;27;102469;-64
2022/11/08 07:51:36;;;;;;;11.80;7.60;;;;;;;5.93;100.00;96314.44;5019478;28;102210;-64
2022/11/08 07:54:03;;;;;;;8.33;7.53;;;;;;;6.01;100.00;96304.38;5020528;28;102363;-64
2022/11/08 07:56:31;;;;;;;8.87;7.63;;;;;;;6.28;100.00;96302.97;5020808;28;103066;-64
2022/11/08 07:58:58;;;;;;;9.47;7.70;;;;;;;6.53;100.00;96294.88;5023950;28;102991;-64
2022/11/08 08:01:26;;;;;;;10.53;7.93;;;;;;;6.72;100.00;96294.56;5020989;28;105611;-64
2022/11/08 08:03:53;;;;;;;7.30;6.57;;;;;;;6.78;100.00;96298.13;5022706;27;103054;-64
2022/11/08 08:06:23;;;;;;;6.40;5.73;;;;;;;7.03;100.00;96285.50;5029650;28;101940;-64
2022/11/08 08:08:50;;;;;;;6.03;5.40;;;;;;;7.17;100.00;96286.88;5031437;28;105982;-64
2022/11/08 08:11:19;;;;;;;9.87;5.43;;;;;;;7.28;100.00;96278.94;5032109;28;101973;-64
2022/11/08 08:13:46;;;;;;;4.87;4.47;;;;;;;7.50;100.00;96282.56;5030118;28;106603;-64
2022/11/08 08:16:13;;;;;;;4.50;4.10;;;;;;;7.55;100.00;96273.94;5030898;28;105814;-64
2022/11/08 08:18:41;;;;;;;7.47;4.30;;;;;;;7.78;100.00;96279.16;5031657;28;101933;-64
2022/11/08 08:21:09;;;;;;;6.20;3.40;;;;;;;7.75;100.00;96280.41;5031620;28;103803;-65
2022/11/08 08:23:38;;;;;;;4.70;3.50;;;;;;;8.01;100.00;96279.88;5031302;28;103740;-65
2022/11/08 08:26:05;;;;;;;3.53;3.17;;;;;;;8.21;100.00;96288.22;5031532;28;102097;-65
2022/11/08 08:28:34;;;;;;;4.13;3.60;;;;;;;8.46;100.00;96277.25;5034072;28;104153;-65
2022/11/08 08:31:01;;;;;;;5.07;3.60;;;;;;;8.58;100.00;96275.34;5031642;28;101871;-65
2022/11/08 08:33:28;;;;;;;4.00;3.70;;;;;;;8.68;100.00;96281.59;5031369;28;105416;-65
2022/11/08 08:35:55;;;;;;;5.20;4.10;;;;;;;8.80;100.00;96277.03;5030858;28;105174;-64
2022/11/08 08:38:22;;;;;;;4.00;3.70;;;;;;;8.99;100.00;96282.91;5031364;28;101855;-65
2022/11/08 08:40:51;;;;;;;4.30;3.90;;;;;;;9.14;100.00;96275.13;5031280;28;104733;-65
2022/11/08 08:43:18;;;;;;;4.77;3.80;;;;;;;9.40;100.00;96280.56;5030770;28;106129;-65
2022/11/08 08:45:46;;;;;;;4.87;4.17;;;;;;;9.44;100.00;96270.28;5031138;28;102606;-65
2022/11/08 08:48:14;;;;;;;3.77;3.40;;;;;;;9.54;100.00;96265.88;5031171;28;105456;-65
2022/11/08 08:50:41;;;;;;;4.37;3.97;;;;;;;9.69;100.00;96270.56;5033732;28;105417;-65
2022/11/08 08:53:09;;;;;;;4.87;3.80;;;;;;;9.81;100.00;96266.75;5031355;28;105267;-65
2022/11/08 08:55:35;;;;;;;5.47;3.80;;;;;;;9.91;100.00;96271.34;5030432;28;105716;-65
2022/11/08 08:58:04;;;;;;;3.97;3.60;;;;;;;10.08;100.00;96266.81;5030954;28;102497;-65
2022/11/08 09:00:31;;;;;;;4.17;3.13;;;;;;;10.25;100.00;96259.56;5031018;28;104757;-65
2022/11/08 09:03:03;;;;;;;3.47;3.20;;;;;;;10.43;100.00;96261.84;5030922;27;102528;-65
2022/11/08 09:05:30;;;;;;;4.87;3.20;;;;;;;10.26;100.00;96263.81;5031095;28;101887;-65
2022/11/08 09:07:57;;;;;;;3.37;2.93;;;;;;;10.21;100.00;96261.09;5030707;28;104804;-65
2022/11/08 09:10:24;;;;;;;3.50;2.90;;;;;;;10.03;100.00;96266.72;5030063;28;105408;-65
2022/11/08 09:12:52;;;;;;;3.87;3.23;;;;;;;10.47;100.00;96262.94;5034056;28;101855;-63
2022/11/08 09:15:22;;;;;;;2.87;2.60;;;;;;;10.45;100.00;96267.69;5018173;28;105357;-67
2022/11/08 09:17:49;;;;;;;4.00;2.13;;;;;;;10.33;100.00;96259.91;5023677;27;102021;-67
2022/11/08 09:20:19;;;;;;;2.80;2.60;;;;;;;10.50;100.00;96262.44;5022813;28;102397;-67
2022/11/08 09:23:27;;;;;;;3.93;3.37;;;;;;;10.78;100.00;96265.59;5028349;27;102004;-67
2022/11/08 09:25:59;;;;;;;2.83;2.43;;;;;;;10.49;100.00;96258.16;5022198;28;101931;-66
2022/11/08 09:28:26;;;;;;;3.00;2.80;;;;;;;10.82;100.00;96257.91;5029014;28;105140;-66
2022/11/08 09:30:56;;;;;;;3.30;2.33;;;;;;;10.94;100.00;96255.88;5027153;28;105029;-63
2022/11/08 09:33:24;;;;;;;2.53;2.33;;;;;;;11.03;100.00;96265.00;5029099;28;102367;-63
2022/11/08 09:35:52;;;;;;;2.37;2.23;;;;;;;10.91;100.00;96256.41;5018256;28;104195;-63
2022/11/08 09:38:19;;;;;;;2.50;2.30;;;;;;;11.00;100.00;96257.50;5021214;28;103085;-64
2022/11/08 09:40:54;;;;;;;2.73;2.50;;;;;;;11.03;100.00;96259.66;5031570;27;101651;-64
2022/11/08 09:43:47;;;;;;;2.80;2.60;;;;;;;11.06;100.00;96259.94;5020357;28;105374;-64
2022/11/08 09:46:26;;;;;;;2.50;2.30;;;;;;;10.86;100.00;96267.00;5026027;28;101901;-64
2022/11/08 09:48:54;;;;;;;3.73;2.80;;;;;;;10.87;100.00;96266.75;5031683;27;102332;-66
2022/11/08 09:51:52;;;;;;;3.87;2.60;;;;;;;11.03;100.00;96252.50;5029262;28;103818;-65
2022/11/08 09:54:23;;;;;;;3.87;2.73;;;;;;;11.17;100.00;96247.53;5031086;27;101938;-66
2022/11/08 09:56:54;;;;;;;2.90;2.70;;;;;;;11.47;100.00;96247.69;5010388;28;102772;-66
2022/11/08 09:59:32;;;;;;;3.17;2.87;;;;;;;11.79;100.00;96243.06;5025312;28;101779;-66
2022/11/08 10:02:01;;;;;;;2.57;2.37;;;;;;;11.78;100.00;96246.78;5031771;27;103022;-67
2022/11/08 10:04:32;;;;;;;3.03;2.40;;;;;;;11.78;100.00;96244.13;5029247;28;105476;-67
2022/11/08 10:07:10;;;;;;;2.33;2.10;;;;;;;11.85;100.00;96231.34;5030246;28;102049;-67
2022/11/08 10:10:04;;;;;;;2.83;2.30;;;;;;;12.27;100.00;96234.66;5018454;28;104845;-67
2022/11/08 10:12:57;;;;;;;3.07;2.50;;;;;;;12.55;100.00;96231.50;4932658;28;105132;-68
2022/11/08 10:15:33;;;;;;;2.60;2.40;;;;;;;12.86;100.00;96239.22;4933604;28;102086;-67
2022/11/08 10:18:31;;;;;;;2.50;2.13;;;;;;;13.07;100.00;96232.84;4934357;28;104479;-67
2022/11/08 10:21:07;;;;;;;4.23;2.63;;;;;;;13.19;100.00;96227.22;4936177;28;105793;-66
2022/11/08 10:23:43;;;;;;;3.60;2.33;;;;;;;13.21;100.00;96230.41;4933617;28;103761;-65
2022/11/08 10:26:35;;;;;;;2.20;2.03;;;;;;;13.21;100.00;96217.06;4952014;28;102958;-67
2022/11/08 10:29:08;;;;;;;2.10;1.90;;;;;;;13.02;100.00;96216.81;4941828;28;102082;-68
2022/11/08 10:31:46;;;;;;;2.10;2.00;;;;;;;13.56;100.00;96206.25;4969350;28;102787;-65
2022/11/08 10:34:18;;;;;;;1.93;1.70;;;;;;;13.32;100.00;96202.59;4941707;28;104344;-66
2022/11/08 10:36:48;;;;;;;2.70;2.00;;;;;;;13.65;100.00;96199.28;4951576;28;101841;-66
2022/11/08 10:39:20;;;;;;;1.90;1.67;;;;;;;13.59;100.00;96190.50;4952330;28;105427;-65
2022/11/08 10:41:58;;;;;;;1.90;1.80;;;;;;;13.79;100.00;96189.63;4950816;28;105087;-66
2022/11/08 10:44:27;;;;;;;2.03;1.83;;;;;;;14.10;100.00;96186.50;4952542;28;102193;-66
2022/11/08 10:47:00;;;;;;;1.87;1.77;;;;;;;14.19;100.00;96184.03;4933075;28;105284;-68
2022/11/08 10:49:31;;;;;;;1.93;1.80;;;;;;;13.94;100.00;96186.84;4968152;28;101959;-68
2022/11/08 10:52:20;;;;;;;1.80;1.70;;;;;;;13.68;100.00;96194.19;5023501;28;105486;-70
2022/11/08 11:02:25;;;;;;;2.40;2.20;;;;;;;12.80;100.00;96191.47;5026004;28;102111;-68
2022/11/08 11:04:54;;;;;;;2.47;2.27;;;;;;;12.71;100.00;96187.75;5028677;27;102835;-67
2022/11/08 11:07:32;;;;;;;2.63;2.33;;;;;;;12.77;100.00;96186.66;5028973;27;101796;-68
2022/11/08 11:10:18;;;;;;;2.87;2.40;;;;;;;12.79;100.00;96180.00;5033420;27;102531;-68
2022/11/08 11:12:52;;;;;;;2.37;2.17;;;;;;;12.53;100.00;96175.75;5028309;27;101738;-68
2022/11/08 11:15:19;;;;;;;4.53;2.30;;;;;;;12.69;100.00;96174.66;5028196;28;103658;-68
2022/11/08 11:17:47;;;;;;;3.43;2.20;;;;;;;12.75;100.00;96165.59;5009916;28;102670;-68
2022/11/08 11:20:23;;;;;;;2.50;2.30;;;;;;;13.43;100.00;96158.75;5010167;28;102156;-66
2022/11/08 11:23:00;;;;;;;2.37;2.00;;;;;;;13.65;100.00;96152.00;5009047;28;105474;-71
2022/11/08 11:25:29;;;;;;;2.60;1.70;;;;;;;13.33;100.00;96156.13;5009881;28;103159;-69
2022/11/08 11:27:59;;;;;;;2.00;1.90;;;;;;;13.76;100.00;96148.19;5012768;28;102421;-68
2022/11/08 11:30:31;;;;;;;2.10;1.90;;;;;;;13.62;100.00;96149.09;5013796;28;102369;-65
2022/11/08 11:33:22;;;;;;;2.53;2.10;;;;;;;14.30;100.00;96138.25;5035188;28;106504;-66
2022/11/08 11:35:55;;;;;;;2.10;1.90;;;;;;;13.70;100.00;96137.81;5015687;28;104091;-66
2022/11/08 11:38:40;;;;;;;1.50;1.40;;;;;;;13.61;100.00;96144.78;5023877;28;105405;-68
2022/11/08 11:41:22;;;;;;;3.07;1.70;;;;;;;13.24;100.00;96144.44;5029020;28;101743;-67
2022/11/08 11:44:01;;;;;;;2.40;1.33;;;;;;;13.49;100.00;96138.97;5032737;28;105101;-69
2022/11/08 11:46:33;;;;;;;2.20;2.00;;;;;;;14.28;100.00;96147.63;5017010;27;103243;-69
2022/11/08 11:49:02;;;;;;;1.97;1.77;;;;;;;13.98;100.00;96150.47;5013709;28;101785;-69
2022/11/08 11:51:53;;;;;;;1.63;1.53;;;;;;;14.44;100.00;96138.41;5029291;28;102972;-69
2022/11/08 11:54:30;;;;;;;1.73;1.57;;;;;;;14.51;100.00;96139.66;5011630;28;103775;-69
2022/11/08 11:57:01;;;;;;;2.90;1.70;;;;;;;14.61;100.00;96138.78;5017278;28;101941;-69
2022/11/08 11:59:42;;;;;;;3.30;1.80;;;;;;;14.81;100.00;96135.91;5016196;28;103050;-67
2022/11/08 12:02:51;;;;;;;2.10;1.90;;;;;;;14.88;100.00;96134.50;5033694;27;101666;-67
2022/11/08 12:05:34;;;;;;;2.03;1.40;;;;;;;14.66;100.00;96142.19;5026014;28;102677;-67
2022/11/08 12:08:15;;;;;;;3.43;1.90;;;;;;;14.86;97.22;96143.91;5011703;28;105401;-67